8NC7 weather

Parker Field
Maysville, North Carolina, United States

Public forecast

Using degrees Fahrenheit for public forecast. Weather courtesy of forecast.io.

Closest aviation weather report (METAR) to Parker Field

Closest report is Coastal Carolina Regional Airport, 14.1 nm (26.2 km) NE. Retrieved 2020/07/07 06:54 UTC (10 minutes ago):

KEWN 070654Z AUTO 00000KT 6SM BR CLR 23/22 A3008 RMK AO2 SLP187 T02280222

Closest aviation forecast (TAF) to Parker Field

Closest forecast is Coastal Carolina Regional Airport, 14.1 nm (26.2 km) NE. Retrieved 2020/07/07 06:54 UTC (10 minutes ago):

TAF KEWN 070553Z 0706/0806 VRB03KT P6SM BKN200 FM071700 15007KT P6SM VCSH OVC040 FM072300 15003KT P6SM BKN050